Search for airport 
image banner adimage banner adimage banner ad
image banner ad

PN26 - St Clair Hospital

Located in Pittsburgh, United States

ICAO - PN26, IATA -

Data provided by Airmate  

General information

Coordinates: N40°22'42" W80°3'55"
Elevation is 1150 feet MSL.
Magnetic variation is -08° East
View others Airports in Pennsylvania

Operational data

Special qualification required
Current time UTC:
Current local time:
Weather at : KAGC - Allegheny County ( 12 km )
METAR: KAGC 091153Z 12003KT 6SM -RA BR BKN047 OVC055 06/04 A3003 RMK AO2 RAB34 SLP179 P0001 60001 70001 T00610039 10061 20050 58015
TAF: KAGC 091120Z 0912/1012 16005KT P6SM -RA OVC040 FM091400 12007KT 4SM -RA OVC030 FM091600 09008KT 3SM RA OVC007 FM092300 01005KT 4SM -SHRA OVC009 FM100500 35006KT 5SM BR OVC004 FM101000 32006KT P6SM BKN010
View NOTAMs / SUP AIP / TFR affecting this airport [VIEW]
Communications frequencies: [VIEW]

Runways:

Airport contact information

Address: Pittsburgh United States

Satellite view of PN26